Time;durP1;ratioP1;P1;durP2;ratioP2;P2;SDS_P1;SDS_P2;PMS_P1;PMS_P2;Temp;Humidity;BMP_temperature;BMP_pressure;BME280_temperature;BME280_humidity;BME280_pressure;Samples;Min_cycle;Max_cycle;Signal;HPM_P1;HPM_P2
2023/09/18 00:00:14;;;;;;;1.33;0.65;;;20.10;99.90;;;;;;4410527;32;20450;-62
2023/09/18 00:02:39;;;;;;;1.85;0.62;;;20.10;99.90;;;;;;4411517;32;20085;-60
2023/09/18 00:05:05;;;;;;;0.70;0.70;;;20.00;99.90;;;;;;4406285;32;20548;-62
2023/09/18 00:07:30;;;;;;;11.38;0.95;;;20.10;99.90;;;;;;4413102;32;20101;-61
2023/09/18 00:09:56;;;;;;;2.17;1.15;;;20.10;99.90;;;;;;4412811;32;20106;-62
2023/09/18 00:12:21;;;;;;;0.43;0.43;;;20.00;99.90;;;;;;4413586;32;20089;-62
2023/09/18 00:14:49;;;;;;;0.40;0.40;;;20.00;99.90;;;;;;4399289;32;20570;-60
2023/09/18 00:17:16;;;;;;;0.80;0.80;;;20.00;99.90;;;;;;4399499;32;20061;-62
2023/09/18 00:19:42;;;;;;;0.68;0.68;;;19.90;99.90;;;;;;4414316;32;20549;-62
2023/09/18 00:22:08;;;;;;;0.50;0.50;;;20.00;99.90;;;;;;4414625;32;20144;-61
2023/09/18 00:24:33;;;;;;;0.85;0.62;;;19.90;99.90;;;;;;4414708;32;20105;-62
2023/09/18 00:26:59;;;;;;;0.65;0.60;;;19.90;99.90;;;;;;4413673;32;20236;-62
2023/09/18 00:29:24;;;;;;;0.65;0.65;;;19.90;99.90;;;;;;4414945;32;20480;-60
2023/09/18 00:31:50;;;;;;;0.75;0.57;;;19.90;99.90;;;;;;4412333;32;20081;-59
2023/09/18 00:34:15;;;;;;;1.27;0.65;;;20.00;99.90;;;;;;4414712;32;20139;-61
2023/09/18 00:36:41;;;;;;;1.98;0.60;;;20.00;99.90;;;;;;4414720;32;20102;-60
2023/09/18 00:39:06;;;;;;;0.40;0.40;;;20.00;99.90;;;;;;4415106;32;20433;-59
2023/09/18 00:41:32;;;;;;;1.33;0.50;;;19.90;99.90;;;;;;4413382;32;20583;-60
2023/09/18 00:43:57;;;;;;;0.40;0.40;;;19.90;99.90;;;;;;4412365;32;20088;-60
2023/09/18 00:46:23;;;;;;;0.43;0.43;;;19.80;99.90;;;;;;4416446;32;20086;-61
2023/09/18 00:48:50;;;;;;;0.50;0.50;;;19.80;99.90;;;;;;4415762;32;20513;-61
2023/09/18 00:51:16;;;;;;;0.50;0.50;;;19.70;99.90;;;;;;4414885;32;20065;-60
2023/09/18 00:53:45;;;;;;;0.50;0.50;;;19.70;99.90;;;;;;4412758;32;20058;-60
2023/09/18 00:56:11;;;;;;;0.55;0.55;;;19.70;99.90;;;;;;4415269;32;20130;-61
2023/09/18 00:58:37;;;;;;;0.40;0.40;;;19.70;99.90;;;;;;4414465;32;20089;-61
2023/09/18 01:01:04;;;;;;;0.50;0.50;;;19.70;99.90;;;;;;4411742;32;20069;-59
2023/09/18 01:03:30;;;;;;;1.55;0.65;;;19.70;99.90;;;;;;4398889;32;20069;-59
2023/09/18 01:05:55;;;;;;;0.45;0.45;;;19.70;99.90;;;;;;4413998;32;20605;-60
2023/09/18 01:08:21;;;;;;;0.70;0.60;;;19.70;99.90;;;;;;4413460;32;20090;-60
2023/09/18 01:11:14;;;;;;;0.50;0.50;;;19.60;99.90;;;;;;4414368;32;20089;-62
2023/09/18 01:13:54;;;;;;;0.50;0.50;;;19.60;99.90;;;;;;4392976;32;20076;-61
2023/09/18 01:16:31;;;;;;;0.65;0.32;;;19.50;99.90;;;;;;4414974;32;20094;-60
2023/09/18 01:18:56;;;;;;;0.47;0.47;;;19.50;99.90;;;;;;4402511;32;20601;-60
2023/09/18 01:21:22;;;;;;;0.50;0.50;;;19.50;99.90;;;;;;4414860;32;20058;-60
2023/09/18 01:23:49;;;;;;;0.90;0.77;;;19.50;99.90;;;;;;4416072;32;20163;-60
2023/09/18 01:26:14;;;;;;;0.37;0.37;;;19.40;99.90;;;;;;4413659;32;20536;-59
2023/09/18 01:28:40;;;;;;;0.57;0.57;;;19.30;99.90;;;;;;4410916;32;20089;-60
2023/09/18 01:31:05;;;;;;;0.50;0.50;;;19.40;99.90;;;;;;4410813;32;20132;-60
2023/09/18 01:33:32;;;;;;;0.73;0.68;;;19.30;99.90;;;;;;4413224;32;20076;-61
2023/09/18 01:35:59;;;;;;;0.55;0.55;;;19.40;99.90;;;;;;4412657;32;20065;-61
2023/09/18 01:38:26;;;;;;;0.50;0.50;;;19.40;99.90;;;;;;4413489;32;20549;-60
2023/09/18 01:40:53;;;;;;;1.17;0.70;;;19.30;99.90;;;;;;4413865;32;20489;-59
2023/09/18 01:43:19;;;;;;;0.57;0.45;;;19.30;99.90;;;;;;4413428;32;20485;-59
2023/09/18 01:45:45;;;;;;;1.15;1.05;;;19.30;99.90;;;;;;4401067;32;20132;-59
2023/09/18 01:48:11;;;;;;;1.62;1.05;;;19.20;99.90;;;;;;4388026;32;20089;-60
2023/09/18 01:50:37;;;;;;;12.15;1.75;;;19.30;99.90;;;;;;4413656;32;20144;-61
2023/09/18 01:53:03;;;;;;;1.33;0.55;;;19.30;99.90;;;;;;4403385;32;20105;-61
2023/09/18 01:55:29;;;;;;;0.65;0.60;;;19.20;99.90;;;;;;4415384;32;20109;-62
2023/09/18 01:57:55;;;;;;;0.40;0.40;;;19.20;99.90;;;;;;4414565;32;20120;-62
2023/09/18 02:00:21;;;;;;;0.50;0.50;;;19.20;99.90;;;;;;4416224;32;20089;-61
2023/09/18 02:02:47;;;;;;;1.60;0.82;;;19.20;99.90;;;;;;4416384;32;20355;-62
2023/09/18 02:05:12;;;;;;;1.10;0.50;;;19.20;99.90;;;;;;4422413;32;20144;-60
2023/09/18 02:07:37;;;;;;;0.98;0.57;;;19.20;99.90;;;;;;4418203;32;20125;-62
2023/09/18 02:10:04;;;;;;;0.62;0.60;;;19.10;99.90;;;;;;4414349;32;20073;-61
2023/09/18 02:12:29;;;;;;;0.80;0.62;;;19.20;99.90;;;;;;4415813;32;20562;-62
2023/09/18 02:14:57;;;;;;;1.55;0.98;;;19.10;99.90;;;;;;4411976;32;20066;-61
2023/09/18 02:17:22;;;;;;;0.30;0.30;;;19.10;99.90;;;;;;4415193;32;20085;-61
2023/09/18 02:19:48;;;;;;;0.60;0.60;;;19.00;99.90;;;;;;4400688;32;20463;-60
2023/09/18 02:22:13;;;;;;;0.80;0.60;;;18.90;99.90;;;;;;4400139;32;20155;-61
2023/09/18 02:24:39;;;;;;;0.70;0.62;;;19.00;99.90;;;;;;4415994;32;20093;-62
2023/09/18 02:27:05;;;;;;;0.50;0.50;;;19.00;99.90;;;;;;4398599;32;20114;-62
2023/09/18 02:29:31;;;;;;;1.15;0.55;;;18.90;99.90;;;;;;4397627;32;20096;-61
2023/09/18 02:31:56;;;;;;;0.50;0.50;;;18.90;99.90;;;;;;4415901;32;20092;-60
2023/09/18 02:34:21;;;;;;;1.87;0.60;;;19.00;99.90;;;;;;4412080;32;20568;-63
2023/09/18 02:36:47;;;;;;;0.70;0.70;;;19.00;99.90;;;;;;4412797;32;21147;-62
2023/09/18 02:39:12;;;;;;;1.17;0.50;;;18.90;99.90;;;;;;4414367;32;20082;-59
2023/09/18 02:41:38;;;;;;;1.45;0.85;;;18.90;99.90;;;;;;4412514;32;20183;-61
2023/09/18 02:44:04;;;;;;;0.52;0.52;;;18.80;99.90;;;;;;4412504;32;20489;-60
2023/09/18 02:46:29;;;;;;;0.75;0.75;;;18.80;99.90;;;;;;4414433;32;20070;-60
2023/09/18 02:48:55;;;;;;;2.40;0.65;;;18.80;99.90;;;;;;4391173;32;20089;-61
2023/09/18 02:51:20;;;;;;;0.70;0.70;;;18.80;99.90;;;;;;4412543;32;20101;-60
2023/09/18 02:53:46;;;;;;;0.50;0.50;;;18.70;99.90;;;;;;4416483;32;20376;-61
2023/09/18 02:56:12;;;;;;;0.70;0.70;;;18.70;99.90;;;;;;4411731;32;20093;-62
2023/09/18 02:58:37;;;;;;;0.52;0.52;;;18.70;99.90;;;;;;4415619;32;20559;-61
2023/09/18 03:01:05;;;;;;;1.00;0.70;;;18.70;99.90;;;;;;4413262;32;20093;-61
2023/09/18 03:03:30;;;;;;;0.40;0.40;;;18.70;99.90;;;;;;4396687;32;20061;-58
2023/09/18 03:06:05;;;;;;;0.40;0.40;;;18.60;99.90;;;;;;4412105;32;20511;-59
2023/09/18 03:08:30;;;;;;;1.70;0.60;;;18.60;99.90;;;;;;4415415;32;20081;-59
2023/09/18 03:10:56;;;;;;;0.82;0.70;;;18.70;99.90;;;;;;4398005;32;20084;-59
2023/09/18 03:13:22;;;;;;;1.35;0.40;;;18.70;99.90;;;;;;4413043;32;20105;-60
2023/09/18 03:15:47;;;;;;;0.40;0.40;;;18.70;99.90;;;;;;4412216;32;20065;-60
2023/09/18 03:18:13;;;;;;;1.08;0.73;;;18.70;99.90;;;;;;4415721;32;20069;-59
2023/09/18 03:20:38;;;;;;;0.70;0.62;;;18.70;99.90;;;;;;4413938;32;20081;-58
2023/09/18 03:23:05;;;;;;;1.00;0.60;;;18.70;99.90;;;;;;4409282;32;20204;-59
2023/09/18 03:25:31;;;;;;;0.43;0.43;;;18.60;99.90;;;;;;4398209;32;20120;-61
2023/09/18 03:27:57;;;;;;;1.27;0.65;;;18.70;99.90;;;;;;4400908;32;20069;-58
2023/09/18 03:30:24;;;;;;;0.55;0.55;;;18.70;99.90;;;;;;4387184;32;20073;-60
2023/09/18 03:32:50;;;;;;;0.65;0.60;;;18.60;99.90;;;;;;4412538;32;20065;-60
2023/09/18 03:35:18;;;;;;;1.50;0.70;;;18.60;99.90;;;;;;4390145;32;20105;-60
2023/09/18 03:37:47;;;;;;;3.00;1.55;;;18.60;99.90;;;;;;4388135;32;20069;-59
2023/09/18 03:40:12;;;;;;;0.50;0.50;;;18.60;99.90;;;;;;4413612;32;20093;-58
2023/09/18 03:42:38;;;;;;;9.10;0.70;;;18.60;99.90;;;;;;4398223;32;20430;-59
2023/09/18 03:45:06;;;;;;;0.52;0.50;;;18.50;99.90;;;;;;4410822;32;20537;-58
2023/09/18 03:47:32;;;;;;;2.22;1.30;;;18.40;99.90;;;;;;4414505;32;20057;-59
2023/09/18 03:49:57;;;;;;;9.40;0.57;;;18.30;99.90;;;;;;4412909;32;20204;-59
2023/09/18 03:52:23;;;;;;;0.80;0.43;;;18.30;99.90;;;;;;4413875;32;20802;-60
2023/09/18 03:54:49;;;;;;;0.47;0.47;;;18.30;99.90;;;;;;4412663;32;20101;-60
2023/09/18 03:57:15;;;;;;;1.08;0.45;;;18.30;99.90;;;;;;4415628;32;20813;-59
2023/09/18 03:59:40;;;;;;;0.43;0.40;;;18.20;99.90;;;;;;4413358;32;20085;-60
2023/09/18 04:02:06;;;;;;;0.57;0.57;;;18.20;99.90;;;;;;4417497;32;20140;-59
2023/09/18 04:04:32;;;;;;;0.40;0.35;;;18.20;99.90;;;;;;4415633;32;20073;-59
2023/09/18 04:06:58;;;;;;;3.60;1.00;;;18.20;99.90;;;;;;4411484;32;20105;-59
2023/09/18 04:09:24;;;;;;;0.50;0.50;;;18.20;99.90;;;;;;4411994;32;20132;-59
2023/09/18 04:11:49;;;;;;;1.02;0.65;;;18.20;99.90;;;;;;4410276;32;20062;-58
2023/09/18 04:14:15;;;;;;;0.60;0.60;;;18.30;99.90;;;;;;4411818;32;20069;-61
2023/09/18 04:16:41;;;;;;;0.80;0.80;;;18.30;99.90;;;;;;4411303;32;20073;-59
2023/09/18 04:19:07;;;;;;;0.50;0.45;;;18.30;99.90;;;;;;4414319;32;20077;-59
2023/09/18 04:21:32;;;;;;;0.40;0.40;;;18.30;99.90;;;;;;4393009;32;20063;-61
2023/09/18 04:23:58;;;;;;;0.60;0.60;;;18.30;99.90;;;;;;4410331;32;20073;-59
2023/09/18 04:26:24;;;;;;;0.47;0.47;;;18.20;99.90;;;;;;4397444;32;20164;-60
2023/09/18 04:28:50;;;;;;;0.40;0.40;;;18.20;99.90;;;;;;4401385;32;20124;-60
2023/09/18 04:31:16;;;;;;;0.70;0.70;;;18.10;99.90;;;;;;4414861;32;20531;-59
2023/09/18 04:33:41;;;;;;;0.60;0.60;;;18.10;99.90;;;;;;4412290;32;20078;-60
2023/09/18 04:36:07;;;;;;;0.50;0.50;;;18.00;99.90;;;;;;4398860;32;20073;-60
2023/09/18 04:38:33;;;;;;;1.17;0.68;;;18.00;99.90;;;;;;4399344;32;20128;-60
2023/09/18 04:40:59;;;;;;;0.40;0.40;;;18.00;99.90;;;;;;4412771;32;20136;-59
2023/09/18 04:43:25;;;;;;;0.40;0.40;;;18.00;99.90;;;;;;4398810;32;20081;-59
2023/09/18 04:45:51;;;;;;;0.70;0.70;;;18.00;99.90;;;;;;4395796;32;21087;-60
2023/09/18 04:48:16;;;;;;;1.02;0.93;;;18.00;99.90;;;;;;4412537;32;20584;-61
2023/09/18 04:50:43;;;;;;;0.40;0.40;;;18.00;99.90;;;;;;4397782;32;20091;-60
2023/09/18 04:53:08;;;;;;;0.55;0.55;;;18.00;99.90;;;;;;4412163;32;20089;-61
2023/09/18 04:55:34;;;;;;;0.55;0.55;;;18.00;99.90;;;;;;4414114;32;20813;-60
2023/09/18 04:58:00;;;;;;;0.52;0.50;;;18.00;99.90;;;;;;4400079;32;20061;-60
2023/09/18 05:00:26;;;;;;;1.65;0.70;;;18.00;99.90;;;;;;4399681;32;20178;-60
2023/09/18 05:02:52;;;;;;;0.43;0.43;;;18.00;99.90;;;;;;4396300;32;20089;-59
2023/09/18 05:05:18;;;;;;;1.75;0.50;;;18.00;99.90;;;;;;4412466;32;20576;-61
2023/09/18 05:07:44;;;;;;;7.97;0.95;;;17.90;99.90;;;;;;4411642;32;20089;-61
2023/09/18 05:10:10;;;;;;;1.77;0.90;;;17.90;99.90;;;;;;4414011;32;20102;-61
2023/09/18 05:12:37;;;;;;;0.50;0.50;;;17.90;99.90;;;;;;4416362;32;20089;-62
2023/09/18 05:15:04;;;;;;;0.57;0.57;;;18.00;99.90;;;;;;4412871;32;20101;-61
2023/09/18 05:17:47;;;;;;;0.77;0.52;;;17.90;99.90;;;;;;4396313;32;20089;-61
2023/09/18 05:20:13;;;;;;;0.65;0.65;;;18.00;99.90;;;;;;4406677;32;20468;-62
2023/09/18 05:22:40;;;;;;;0.68;0.68;;;18.00;99.90;;;;;;4413623;32;20147;-62
2023/09/18 05:25:06;;;;;;;0.98;0.70;;;18.00;99.90;;;;;;4408458;32;20912;-59
2023/09/18 05:27:32;;;;;;;0.50;0.50;;;18.10;99.90;;;;;;4398429;32;20170;-60
2023/09/18 05:29:59;;;;;;;0.73;0.73;;;18.10;99.90;;;;;;4405595;32;20186;-59
2023/09/18 05:32:26;;;;;;;1.67;0.55;;;18.00;99.90;;;;;;4386549;32;21010;-61
2023/09/18 05:34:51;;;;;;;0.50;0.50;;;18.10;99.90;;;;;;4407125;32;21536;-63
2023/09/18 05:37:17;;;;;;;0.52;0.52;;;18.10;99.90;;;;;;4405338;32;20065;-62
2023/09/18 05:39:47;;;;;;;0.43;0.43;;;18.20;99.90;;;;;;4388226;32;20801;-62
2023/09/18 05:42:12;;;;;;;0.60;0.60;;;18.30;99.90;;;;;;4393286;32;20098;-62
2023/09/18 05:44:39;;;;;;;0.60;0.60;;;18.30;99.90;;;;;;4399728;32;20545;-62
2023/09/18 05:47:05;;;;;;;0.52;0.52;;;18.40;99.90;;;;;;4400097;32;20097;-62
2023/09/18 05:49:31;;;;;;;0.60;0.60;;;18.40;99.90;;;;;;4390678;32;20901;-61
2023/09/18 05:51:56;;;;;;;0.30;0.30;;;18.50;99.90;;;;;;4387703;32;20089;-62
2023/09/18 05:54:22;;;;;;;0.52;0.52;;;18.50;99.90;;;;;;4383612;32;20089;-63
2023/09/18 05:56:48;;;;;;;1.20;0.60;;;18.60;99.90;;;;;;4374615;32;21300;-62
2023/09/18 05:59:15;;;;;;;0.62;0.62;;;18.70;99.90;;;;;;4366163;32;20129;-63
2023/09/18 06:01:41;;;;;;;0.80;0.80;;;18.70;99.90;;;;;;4366684;32;20085;-62
2023/09/18 06:04:06;;;;;;;0.60;0.60;;;18.80;99.90;;;;;;4369614;32;21716;-62
2023/09/18 06:06:32;;;;;;;0.98;0.90;;;18.80;99.90;;;;;;4376593;32;20252;-59
2023/09/18 06:08:57;;;;;;;0.60;0.60;;;18.90;99.90;;;;;;4380748;32;20085;-61
2023/09/18 06:11:23;;;;;;;1.15;0.88;;;18.90;99.90;;;;;;4375317;32;20194;-60
2023/09/18 06:13:48;;;;;;;0.80;0.80;;;18.90;99.90;;;;;;4377603;32;20113;-61
2023/09/18 06:16:14;;;;;;;0.40;0.40;;;19.00;99.90;;;;;;4383972;32;22415;-61
2023/09/18 06:18:39;;;;;;;0.50;0.50;;;19.00;99.90;;;;;;4388153;32;20122;-61
2023/09/18 06:21:05;;;;;;;1.65;0.75;;;19.10;99.90;;;;;;4382684;32;20262;-61
2023/09/18 06:23:31;;;;;;;1.25;0.88;;;19.10;99.90;;;;;;4381364;32;20110;-61
2023/09/18 06:25:59;;;;;;;0.50;0.50;;;19.20;99.90;;;;;;4376969;32;20126;-60
2023/09/18 06:28:24;;;;;;;1.95;1.33;;;19.30;99.90;;;;;;4379891;32;20089;-61
2023/09/18 06:30:50;;;;;;;0.40;0.40;;;19.30;99.90;;;;;;4369978;32;20162;-61
2023/09/18 06:33:16;;;;;;;1.98;0.90;;;19.40;99.90;;;;;;4375925;32;20406;-61
2023/09/18 06:35:42;;;;;;;0.62;0.62;;;19.50;99.90;;;;;;4374592;32;20350;-62
2023/09/18 06:38:10;;;;;;;0.32;0.32;;;19.60;99.90;;;;;;4367974;32;20104;-61
2023/09/18 06:40:35;;;;;;;1.37;0.73;;;19.60;99.90;;;;;;4366147;32;20097;-62
2023/09/18 06:43:01;;;;;;;0.70;0.62;;;19.70;99.90;;;;;;4377471;32;21656;-62
2023/09/18 06:45:29;;;;;;;0.70;0.70;;;19.70;99.90;;;;;;4382554;32;20778;-61
2023/09/18 06:47:55;;;;;;;1.10;0.55;;;19.70;99.90;;;;;;4361705;32;20117;-62
2023/09/18 06:50:21;;;;;;;0.40;0.40;;;19.80;99.90;;;;;;4376681;32;20578;-61
2023/09/18 06:52:46;;;;;;;0.82;0.50;;;19.90;99.90;;;;;;4372853;32;20090;-62
2023/09/18 06:55:13;;;;;;;0.50;0.50;;;19.90;99.90;;;;;;4379060;32;20101;-63
2023/09/18 06:57:40;;;;;;;1.27;0.52;;;20.00;99.90;;;;;;4366808;32;20558;-63
2023/09/18 07:00:07;;;;;;;0.70;0.70;;;20.10;99.90;;;;;;4370562;32;20576;-61
2023/09/18 07:02:32;;;;;;;0.62;0.60;;;20.20;99.90;;;;;;4380832;32;20223;-63
2023/09/18 07:04:58;;;;;;;0.60;0.60;;;20.30;99.90;;;;;;4374686;32;20597;-62
2023/09/18 07:07:25;;;;;;;0.30;0.30;;;20.30;99.90;;;;;;4375835;32;20105;-63
2023/09/18 07:09:51;;;;;;;1.77;0.70;;;20.40;99.90;;;;;;4366799;32;20855;-63
2023/09/18 07:12:19;;;;;;;0.62;0.60;;;20.40;99.90;;;;;;4358799;32;20201;-63
2023/09/18 07:14:46;;;;;;;0.35;0.35;;;20.50;99.90;;;;;;4375780;32;20158;-64
2023/09/18 07:17:12;;;;;;;0.62;0.45;;;20.50;99.90;;;;;;4361591;32;20959;-63
2023/09/18 07:19:37;;;;;;;3.87;0.75;;;20.60;99.90;;;;;;4381098;32;20789;-63
2023/09/18 07:22:03;;;;;;;0.50;0.50;;;20.70;99.90;;;;;;4379975;32;20101;-62
2023/09/18 07:24:28;;;;;;;0.82;0.60;;;20.80;99.90;;;;;;4378173;32;20191;-62
2023/09/18 07:26:54;;;;;;;0.40;0.40;;;20.80;99.90;;;;;;4361997;32;20110;-64
2023/09/18 07:29:20;;;;;;;0.60;0.60;;;20.90;99.90;;;;;;4369723;32;20645;-64
2023/09/18 07:31:46;;;;;;;0.40;0.40;;;20.90;99.90;;;;;;4358356;32;20077;-64
2023/09/18 07:34:13;;;;;;;2.05;1.12;;;21.00;99.90;;;;;;4356872;32;20422;-63
2023/09/18 07:36:39;;;;;;;0.73;0.60;;;21.10;99.90;;;;;;4379596;32;21552;-63
2023/09/18 07:39:05;;;;;;;0.60;0.60;;;21.10;99.90;;;;;;4382913;32;20245;-63
2023/09/18 07:41:31;;;;;;;0.47;0.47;;;21.20;99.90;;;;;;4391751;32;20793;-63
2023/09/18 07:43:58;;;;;;;1.65;0.62;;;21.20;99.90;;;;;;4380458;32;20184;-64
2023/09/18 07:46:24;;;;;;;0.50;0.50;;;21.30;99.90;;;;;;4375947;32;20236;-64
2023/09/18 07:48:50;;;;;;;0.70;0.70;;;21.30;99.90;;;;;;4359949;32;20105;-63
2023/09/18 07:51:16;;;;;;;0.32;0.32;;;21.40;99.90;;;;;;4370131;32;20088;-62
2023/09/18 07:53:42;;;;;;;2.30;0.52;;;21.40;99.90;;;;;;4365541;32;20434;-62
2023/09/18 07:56:08;;;;;;;0.73;0.73;;;21.50;99.90;;;;;;4358798;32;20109;-64
2023/09/18 07:58:38;;;;;;;0.35;0.35;;;21.60;99.90;;;;;;4379390;32;20101;-63
2023/09/18 08:01:05;;;;;;;0.32;0.32;;;21.60;99.90;;;;;;4389969;32;20098;-63
2023/09/18 08:03:31;;;;;;;0.32;0.32;;;21.70;99.90;;;;;;4393865;32;20863;-64
2023/09/18 08:05:57;;;;;;;0.85;0.52;;;21.80;99.90;;;;;;4373341;32;20102;-63
2023/09/18 08:08:23;;;;;;;0.40;0.40;;;21.90;99.90;;;;;;4384810;32;20109;-62
2023/09/18 08:10:49;;;;;;;0.75;0.75;;;22.00;99.90;;;;;;4363077;32;20175;-62
2023/09/18 08:13:15;;;;;;;0.35;0.35;;;22.00;99.90;;;;;;4379124;32;20081;-60
2023/09/18 08:15:45;;;;;;;0.52;0.45;;;22.10;99.90;;;;;;4391631;32;20094;-63
2023/09/18 08:18:13;;;;;;;0.40;0.40;;;22.20;99.90;;;;;;4389847;32;20097;-62
2023/09/18 08:20:41;;;;;;;0.20;0.20;;;22.30;99.90;;;;;;4386168;32;20097;-64
2023/09/18 08:23:07;;;;;;;0.22;0.22;;;22.40;99.90;;;;;;4387223;32;20093;-63
2023/09/18 08:25:32;;;;;;;0.30;0.30;;;22.50;99.90;;;;;;4384799;32;20194;-64
2023/09/18 08:27:58;;;;;;;0.30;0.30;;;22.50;99.90;;;;;;4383893;32;20469;-61
2023/09/18 08:30:24;;;;;;;0.73;0.57;;;22.60;99.90;;;;;;4381428;32;20105;-62
2023/09/18 08:32:49;;;;;;;0.37;0.37;;;22.70;99.90;;;;;;4372178;32;20158;-62
2023/09/18 08:35:15;;;;;;;0.30;0.30;;;22.80;99.90;;;;;;4389467;32;20778;-65
2023/09/18 08:37:41;;;;;;;0.75;0.75;;;22.90;99.90;;;;;;4371104;32;20215;-61
2023/09/18 08:40:09;;;;;;;0.32;0.32;;;23.10;99.90;;;;;;4384250;32;20140;-63
2023/09/18 08:42:39;;;;;;;0.50;0.50;;;23.10;99.90;;;;;;4384433;32;20125;-62
2023/09/18 08:45:09;;;;;;;0.68;0.68;;;23.20;99.90;;;;;;4384460;32;20110;-62
2023/09/18 08:47:36;;;;;;;1.65;1.02;;;23.20;99.90;;;;;;4381612;32;20411;-63
2023/09/18 08:50:02;;;;;;;0.20;0.20;;;23.30;99.90;;;;;;4386740;32;20113;-61
2023/09/18 08:52:27;;;;;;;0.95;0.52;;;23.30;99.90;;;;;;4391518;32;20080;-63
2023/09/18 08:54:56;;;;;;;0.35;0.32;;;23.50;99.90;;;;;;4376292;32;20633;-63
2023/09/18 08:57:21;;;;;;;0.80;0.62;;;23.50;99.90;;;;;;4386341;32;20548;-62
2023/09/18 08:59:49;;;;;;;0.20;0.20;;;23.60;99.90;;;;;;4388403;32;20065;-63
2023/09/18 09:02:14;;;;;;;0.98;0.73;;;23.80;99.90;;;;;;4386300;32;20919;-62
2023/09/18 09:04:40;;;;;;;1.33;0.45;;;23.80;99.90;;;;;;4386062;32;20591;-63
2023/09/18 09:07:06;;;;;;;0.65;0.55;;;23.90;99.90;;;;;;4387093;32;20809;-60
2023/09/18 09:09:31;;;;;;;0.45;0.40;;;23.90;99.90;;;;;;4392342;32;20587;-62
2023/09/18 09:11:57;;;;;;;2.05;0.40;;;24.00;99.90;;;;;;4386850;32;20105;-62
2023/09/18 09:14:27;;;;;;;0.20;0.20;;;24.00;99.90;;;;;;4389381;32;21987;-63
2023/09/18 09:16:55;;;;;;;0.35;0.35;;;24.10;99.90;;;;;;4387762;32;20697;-63
2023/09/18 09:19:30;;;;;;;0.25;0.25;;;24.10;99.90;;;;;;4361309;32;20096;-62
2023/09/18 09:21:56;;;;;;;2.40;0.90;;;24.20;99.90;;;;;;4371302;32;20891;-62
2023/09/18 09:24:40;;;;;;;0.20;0.20;;;24.30;99.90;;;;;;4354510;32;20850;-65
2023/09/18 09:27:06;;;;;;;0.40;0.40;;;24.40;99.90;;;;;;4368680;32;20206;-64
2023/09/18 09:29:31;;;;;;;0.45;0.40;;;24.50;99.90;;;;;;4376127;32;20100;-63
2023/09/18 09:32:12;;;;;;;3.50;0.60;;;24.60;99.90;;;;;;4371630;32;20127;-62
2023/09/18 09:34:38;;;;;;;0.70;0.47;;;24.70;99.90;;;;;;4377203;32;20160;-63
2023/09/18 09:37:04;;;;;;;0.37;0.37;;;24.80;99.90;;;;;;4380922;32;20227;-63
2023/09/18 09:39:30;;;;;;;0.30;0.30;;;24.80;99.90;;;;;;4384848;32;20644;-62
2023/09/18 09:42:00;;;;;;;0.57;0.57;;;24.90;99.90;;;;;;4381834;32;20372;-65
2023/09/18 09:44:25;;;;;;;0.20;0.20;;;24.90;99.90;;;;;;4364992;32;20109;-63
2023/09/18 09:46:51;;;;;;;0.35;0.32;;;24.90;99.90;;;;;;4382506;32;20292;-62
2023/09/18 09:49:19;;;;;;;0.52;0.30;;;24.80;99.90;;;;;;4379967;32;20139;-64
2023/09/18 09:51:45;;;;;;;1.67;0.65;;;24.90;99.90;;;;;;4391233;32;20164;-63
2023/09/18 09:54:12;;;;;;;0.28;0.28;;;24.90;99.90;;;;;;4366346;32;21205;-63
2023/09/18 09:56:43;;;;;;;0.40;0.40;;;24.90;99.90;;;;;;4376288;32;20263;-63
2023/09/18 09:59:11;;;;;;;0.30;0.30;;;24.90;99.90;;;;;;4387346;32;20081;-62
2023/09/18 10:01:38;;;;;;;0.28;0.28;;;24.90;99.90;;;;;;4374923;32;20085;-63
2023/09/18 10:04:07;;;;;;;0.30;0.30;;;25.00;99.90;;;;;;4381255;32;20832;-63
2023/09/18 10:06:35;;;;;;;0.22;0.22;;;25.00;99.90;;;;;;4373235;32;20549;-63
2023/09/18 10:09:03;;;;;;;0.30;0.30;;;25.00;99.90;;;;;;4382447;32;20576;-64
2023/09/18 10:11:32;;;;;;;0.68;0.32;;;25.10;99.90;;;;;;4365521;32;20102;-64
2023/09/18 10:14:07;;;;;;;6.35;0.70;;;25.20;99.90;;;;;;4359516;32;20793;-64
2023/09/18 10:16:36;;;;;;;2.33;0.65;;;25.20;99.90;;;;;;4377066;32;20391;-63
2023/09/18 10:19:30;;;;;;;0.43;0.35;;;25.20;99.90;;;;;;4368438;32;21555;-61
2023/09/18 10:22:06;;;;;;;0.52;0.43;;;25.20;99.90;;;;;;4367314;32;20136;-63
2023/09/18 10:24:37;;;;;;;0.90;0.47;;;25.30;99.90;;;;;;4383977;32;20090;-64
2023/09/18 10:27:06;;;;;;;0.20;0.20;;;25.40;99.90;;;;;;4369023;32;20081;-64
2023/09/18 10:29:35;;;;;;;0.65;0.45;;;25.40;99.90;;;;;;4376514;32;22149;-64
2023/09/18 10:32:03;;;;;;;0.20;0.20;;;25.30;99.90;;;;;;4391803;32;20280;-64
2023/09/18 10:34:30;;;;;;;0.73;0.28;;;25.30;99.90;;;;;;4376364;32;20241;-64
2023/09/18 10:37:00;;;;;;;1.23;0.90;;;25.20;99.90;;;;;;4379861;32;20129;-65
2023/09/18 10:39:28;;;;;;;1.75;0.47;;;25.20;99.90;;;;;;4373381;32;20073;-64
2023/09/18 10:41:55;;;;;;;0.85;0.60;;;25.10;99.90;;;;;;4390012;32;20110;-64
2023/09/18 10:44:22;;;;;;;0.25;0.25;;;25.10;99.90;;;;;;4391789;32;20125;-63
2023/09/18 10:46:49;;;;;;;0.20;0.20;;;25.10;99.90;;;;;;4377295;32;20186;-61
2023/09/18 10:49:17;;;;;;;0.47;0.30;;;25.10;99.90;;;;;;4374084;32;20097;-62
2023/09/18 10:51:43;;;;;;;0.35;0.35;;;25.10;99.90;;;;;;4375958;32;20081;-62
2023/09/18 10:54:09;;;;;;;0.43;0.37;;;25.20;99.90;;;;;;4376904;32;20841;-63
2023/09/18 10:56:35;;;;;;;1.67;0.80;;;25.30;99.90;;;;;;4355122;32;20415;-63
2023/09/18 10:59:05;;;;;;;0.20;0.20;;;25.40;99.90;;;;;;4373883;32;20147;-64
2023/09/18 11:01:31;;;;;;;0.40;0.20;;;25.40;99.90;;;;;;4364217;32;20097;-62
2023/09/18 11:04:02;;;;;;;0.40;0.30;;;25.40;99.90;;;;;;4373421;32;21260;-63
2023/09/18 11:06:28;;;;;;;0.20;0.20;;;25.30;99.90;;;;;;4365923;32;20081;-63
2023/09/18 11:09:04;;;;;;;1.35;0.30;;;25.20;99.90;;;;;;4367123;32;20839;-62
2023/09/18 11:11:32;;;;;;;2.65;0.62;;;25.20;99.90;;;;;;4375636;32;20097;-62
2023/09/18 11:13:59;;;;;;;1.58;0.65;;;25.20;99.90;;;;;;4368855;32;20108;-64
2023/09/18 11:16:28;;;;;;;0.65;0.50;;;25.20;99.90;;;;;;4363165;32;20161;-63
2023/09/18 11:19:09;;;;;;;0.22;0.22;;;25.10;99.90;;;;;;4380492;32;20335;-63
2023/09/18 11:21:35;;;;;;;0.40;0.40;;;25.10;99.90;;;;;;4371963;32;20726;-63
2023/09/18 11:24:04;;;;;;;0.30;0.30;;;25.10;99.90;;;;;;4362143;32;20380;-63
2023/09/18 11:26:32;;;;;;;0.30;0.30;;;25.10;99.90;;;;;;4356032;32;20093;-62
2023/09/18 11:29:04;;;;;;;0.22;0.22;;;25.10;99.90;;;;;;4367343;32;20525;-64
2023/09/18 11:31:54;;;;;;;0.30;0.30;;;25.10;99.90;;;;;;4361765;32;20108;-63
2023/09/18 11:34:28;;;;;;;0.40;0.40;;;25.10;99.90;;;;;;4357216;32;20140;-63
2023/09/18 11:36:54;;;;;;;0.68;0.52;;;25.10;99.90;;;;;;4345820;32;20086;-64
2023/09/18 11:39:40;;;;;;;4.65;0.70;;;25.00;99.90;;;;;;4355381;32;20453;-64
2023/09/18 11:42:10;;;;;;;0.28;0.28;;;25.00;99.90;;;;;;4346241;32;20077;-64
2023/09/18 11:44:40;;;;;;;0.60;0.60;;;24.90;99.90;;;;;;4369254;32;20072;-61
2023/09/18 11:47:08;;;;;;;0.68;0.22;;;25.00;99.90;;;;;;4354826;32;20249;-63
2023/09/18 11:49:34;;;;;;;0.20;0.20;;;24.90;99.90;;;;;;4345464;32;85251;-62
2023/09/18 11:52:00;;;;;;;0.50;0.43;;;24.90;99.90;;;;;;4370638;32;20696;-64
2023/09/18 11:54:29;;;;;;;0.52;0.47;;;24.90;99.90;;;;;;4360353;32;20164;-65
2023/09/18 11:56:54;;;;;;;1.75;0.30;;;24.90;99.90;;;;;;4386944;32;20759;-64
2023/09/18 11:59:36;;;;;;;0.32;0.32;;;24.90;99.90;;;;;;4378006;32;20154;-64
2023/09/18 12:02:05;;;;;;;0.30;0.30;;;25.00;99.90;;;;;;4382162;32;20156;-65
2023/09/18 12:04:32;;;;;;;0.32;0.32;;;25.10;99.90;;;;;;4386885;32;20556;-63
2023/09/18 12:06:59;;;;;;;0.20;0.20;;;25.20;99.90;;;;;;4386200;32;20097;-65
2023/09/18 12:09:26;;;;;;;0.50;0.50;;;25.30;99.90;;;;;;4380174;32;20599;-65
2023/09/18 12:11:55;;;;;;;0.32;0.30;;;25.60;99.90;;;;;;4389480;32;20088;-64
2023/09/18 12:14:21;;;;;;;0.60;0.20;;;25.80;99.90;;;;;;4389415;32;20729;-64
2023/09/18 12:16:50;;;;;;;0.35;0.35;;;26.00;99.90;;;;;;4379443;32;20117;-64
2023/09/18 12:19:18;;;;;;;0.50;0.50;;;26.00;99.90;;;;;;4386310;32;21395;-64
2023/09/18 12:21:47;;;;;;;0.20;0.20;;;25.90;99.90;;;;;;4386022;32;20090;-64
2023/09/18 12:24:15;;;;;;;0.30;0.30;;;25.90;99.90;;;;;;4389781;32;20073;-64
2023/09/18 12:26:41;;;;;;;0.55;0.40;;;25.80;99.90;;;;;;4359295;32;20109;-63
2023/09/18 12:29:07;;;;;;;1.05;0.73;;;25.60;99.90;;;;;;4387272;32;20109;-64
2023/09/18 12:31:33;;;;;;;0.20;0.20;;;25.50;99.90;;;;;;4361302;32;20097;-65
2023/09/18 12:33:59;;;;;;;0.20;0.20;;;25.50;99.90;;;;;;4381666;32;20213;-64
2023/09/18 12:36:25;;;;;;;0.32;0.20;;;25.50;99.90;;;;;;4399854;32;20662;-62
2023/09/18 12:39:00;;;;;;;1.02;0.55;;;25.50;99.90;;;;;;4404218;32;20094;-64
2023/09/18 12:41:26;;;;;;;0.20;0.20;;;25.40;99.90;;;;;;4386583;32;20892;-63
2023/09/18 12:43:53;;;;;;;0.20;0.20;;;25.40;99.90;;;;;;4411215;32;20303;-63
2023/09/18 12:46:21;;;;;;;1.23;0.52;;;25.30;99.90;;;;;;4381682;32;20077;-64